sensor_id;sensor_type;location;lat;lon;timestamp;temperature;humidity
60027;DHT22;45891;53.006;6.512;2023-05-10T00:00:43;12.70;99.90
60027;DHT22;45891;53.006;6.512;2023-05-10T00:03:09;12.70;99.90
60027;DHT22;45891;53.006;6.512;2023-05-10T00:05:35;12.60;99.90
60027;DHT22;45891;53.006;6.512;2023-05-10T00:08:01;12.70;99.90
60027;DHT22;45891;53.006;6.512;2023-05-10T00:10:27;12.70;99.90
60027;DHT22;45891;53.006;6.512;2023-05-10T00:12:53;12.70;99.90
60027;DHT22;45891;53.006;6.512;2023-05-10T00:15:19;12.70;99.90
60027;DHT22;45891;53.006;6.512;2023-05-10T00:17:45;12.70;99.90
60027;DHT22;45891;53.006;6.512;2023-05-10T00:20:11;12.70;99.90
60027;DHT22;45891;53.006;6.512;2023-05-10T00:22:37;12.70;99.90
60027;DHT22;45891;53.006;6.512;2023-05-10T00:25:04;12.70;99.90
60027;DHT22;45891;53.006;6.512;2023-05-10T00:27:30;12.60;99.90
60027;DHT22;45891;53.006;6.512;2023-05-10T00:29:56;12.70;99.90
60027;DHT22;45891;53.006;6.512;2023-05-10T00:32:23;12.70;99.90
60027;DHT22;45891;53.006;6.512;2023-05-10T00:34:49;12.70;99.90
60027;DHT22;45891;53.006;6.512;2023-05-10T00:37:16;12.60;99.90
60027;DHT22;45891;53.006;6.512;2023-05-10T00:39:42;12.70;99.90
60027;DHT22;45891;53.006;6.512;2023-05-10T00:42:08;12.70;99.90
60027;DHT22;45891;53.006;6.512;2023-05-10T00:44:34;12.70;99.90
60027;DHT22;45891;53.006;6.512;2023-05-10T00:47:00;12.70;99.90
60027;DHT22;45891;53.006;6.512;2023-05-10T00:49:26;12.60;99.90
60027;DHT22;45891;53.006;6.512;2023-05-10T00:51:53;12.70;99.90
60027;DHT22;45891;53.006;6.512;2023-05-10T00:54:19;12.70;99.90
60027;DHT22;45891;53.006;6.512;2023-05-10T00:56:45;12.70;99.90
60027;DHT22;45891;53.006;6.512;2023-05-10T00:59:15;12.70;99.90
60027;DHT22;45891;53.006;6.512;2023-05-10T01:01:45;12.60;99.90
60027;DHT22;45891;53.006;6.512;2023-05-10T01:04:13;12.70;99.90
60027;DHT22;45891;53.006;6.512;2023-05-10T01:06:42;12.60;99.90
60027;DHT22;45891;53.006;6.512;2023-05-10T01:09:08;12.60;99.90
60027;DHT22;45891;53.006;6.512;2023-05-10T01:11:37;12.60;99.90
60027;DHT22;45891;53.006;6.512;2023-05-10T01:14:05;12.60;99.90
60027;DHT22;45891;53.006;6.512;2023-05-10T01:16:36;12.60;99.90
60027;DHT22;45891;53.006;6.512;2023-05-10T01:19:03;12.60;99.90
60027;DHT22;45891;53.006;6.512;2023-05-10T01:21:37;12.50;99.90
60027;DHT22;45891;53.006;6.512;2023-05-10T01:24:25;12.50;99.90
60027;DHT22;45891;53.006;6.512;2023-05-10T01:35:21;12.50;99.90
60027;DHT22;45891;53.006;6.512;2023-05-10T01:37:57;12.50;99.90
60027;DHT22;45891;53.006;6.512;2023-05-10T01:43:01;12.50;99.90
60027;DHT22;45891;53.006;6.512;2023-05-10T01:48:08;12.50;99.90
60027;DHT22;45891;53.006;6.512;2023-05-10T01:50:37;12.50;99.90
60027;DHT22;45891;53.006;6.512;2023-05-10T01:53:08;12.50;99.90
60027;DHT22;45891;53.006;6.512;2023-05-10T01:55:51;12.50;99.90
60027;DHT22;45891;53.006;6.512;2023-05-10T01:58:29;12.50;99.90
60027;DHT22;45891;53.006;6.512;2023-05-10T02:00:58;12.50;99.90
60027;DHT22;45891;53.006;6.512;2023-05-10T02:03:27;12.40;99.90
60027;DHT22;45891;53.006;6.512;2023-05-10T02:05:54;12.40;99.90
60027;DHT22;45891;53.006;6.512;2023-05-10T02:08:22;12.40;99.90
60027;DHT22;45891;53.006;6.512;2023-05-10T02:10:50;12.40;99.90
60027;DHT22;45891;53.006;6.512;2023-05-10T02:13:18;12.50;99.90
60027;DHT22;45891;53.006;6.512;2023-05-10T02:15:48;12.40;99.90
60027;DHT22;45891;53.006;6.512;2023-05-10T02:18:15;12.40;99.90
60027;DHT22;45891;53.006;6.512;2023-05-10T02:20:45;12.40;99.90
60027;DHT22;45891;53.006;6.512;2023-05-10T02:23:11;12.50;99.90
60027;DHT22;45891;53.006;6.512;2023-05-10T02:25:38;12.40;99.90
60027;DHT22;45891;53.006;6.512;2023-05-10T02:28:06;12.40;99.90
60027;DHT22;45891;53.006;6.512;2023-05-10T02:30:34;12.50;99.90
60027;DHT22;45891;53.006;6.512;2023-05-10T02:33:01;12.50;99.90
60027;DHT22;45891;53.006;6.512;2023-05-10T02:35:30;12.40;99.90
60027;DHT22;45891;53.006;6.512;2023-05-10T02:37:58;12.40;99.90
60027;DHT22;45891;53.006;6.512;2023-05-10T02:40:25;12.40;99.90
60027;DHT22;45891;53.006;6.512;2023-05-10T02:42:55;12.40;99.90
60027;DHT22;45891;53.006;6.512;2023-05-10T02:45:25;12.40;99.90
60027;DHT22;45891;53.006;6.512;2023-05-10T02:47:54;12.40;99.90
60027;DHT22;45891;53.006;6.512;2023-05-10T02:50:21;12.40;99.90
60027;DHT22;45891;53.006;6.512;2023-05-10T02:52:50;12.40;99.90
60027;DHT22;45891;53.006;6.512;2023-05-10T02:55:21;12.30;99.90
60027;DHT22;45891;53.006;6.512;2023-05-10T02:57:59;12.30;99.90
60027;DHT22;45891;53.006;6.512;2023-05-10T03:00:25;12.30;99.90
60027;DHT22;45891;53.006;6.512;2023-05-10T03:02:52;12.30;99.90
60027;DHT22;45891;53.006;6.512;2023-05-10T03:05:18;12.40;99.90
60027;DHT22;45891;53.006;6.512;2023-05-10T03:07:45;12.40;99.90
60027;DHT22;45891;53.006;6.512;2023-05-10T03:10:12;12.40;99.90
60027;DHT22;45891;53.006;6.512;2023-05-10T03:15:42;12.30;99.90
60027;DHT22;45891;53.006;6.512;2023-05-10T03:18:15;12.30;99.90
60027;DHT22;45891;53.006;6.512;2023-05-10T03:20:48;12.30;99.90
60027;DHT22;45891;53.006;6.512;2023-05-10T03:23:27;12.30;99.90
60027;DHT22;45891;53.006;6.512;2023-05-10T03:25:56;12.30;99.90
60027;DHT22;45891;53.006;6.512;2023-05-10T03:28:25;12.30;99.90
60027;DHT22;45891;53.006;6.512;2023-05-10T03:30:53;12.30;99.90
60027;DHT22;45891;53.006;6.512;2023-05-10T03:33:20;12.30;99.90
60027;DHT22;45891;53.006;6.512;2023-05-10T03:35:46;12.30;99.90
60027;DHT22;45891;53.006;6.512;2023-05-10T03:38:12;12.30;99.90
60027;DHT22;45891;53.006;6.512;2023-05-10T03:40:39;12.40;99.90
60027;DHT22;45891;53.006;6.512;2023-05-10T03:43:05;12.30;99.90
60027;DHT22;45891;53.006;6.512;2023-05-10T03:45:31;12.30;99.90
60027;DHT22;45891;53.006;6.512;2023-05-10T03:47:58;12.30;99.90
60027;DHT22;45891;53.006;6.512;2023-05-10T03:50:24;12.30;99.90
60027;DHT22;45891;53.006;6.512;2023-05-10T03:52:50;12.30;99.90
60027;DHT22;45891;53.006;6.512;2023-05-10T03:55:16;12.30;99.90
60027;DHT22;45891;53.006;6.512;2023-05-10T03:57:42;12.30;99.90
60027;DHT22;45891;53.006;6.512;2023-05-10T04:00:09;12.30;99.90
60027;DHT22;45891;53.006;6.512;2023-05-10T04:02:35;12.30;99.90
60027;DHT22;45891;53.006;6.512;2023-05-10T04:05:02;12.30;99.90
60027;DHT22;45891;53.006;6.512;2023-05-10T04:07:28;12.30;99.90
60027;DHT22;45891;53.006;6.512;2023-05-10T04:09:55;12.30;99.90
60027;DHT22;45891;53.006;6.512;2023-05-10T04:12:21;12.30;99.90
60027;DHT22;45891;53.006;6.512;2023-05-10T04:14:47;12.30;99.90
60027;DHT22;45891;53.006;6.512;2023-05-10T04:17:13;12.30;99.90
60027;DHT22;45891;53.006;6.512;2023-05-10T04:19:39;12.30;99.90
60027;DHT22;45891;53.006;6.512;2023-05-10T04:22:05;12.30;99.90
60027;DHT22;45891;53.006;6.512;2023-05-10T04:24:31;12.30;99.90
60027;DHT22;45891;53.006;6.512;2023-05-10T04:26:57;12.30;99.90
60027;DHT22;45891;53.006;6.512;2023-05-10T04:29:23;12.30;99.90
60027;DHT22;45891;53.006;6.512;2023-05-10T04:31:49;12.30;99.90
60027;DHT22;45891;53.006;6.512;2023-05-10T04:34:16;12.30;99.90
60027;DHT22;45891;53.006;6.512;2023-05-10T04:36:42;12.30;99.90
60027;DHT22;45891;53.006;6.512;2023-05-10T04:39:09;12.30;99.90
60027;DHT22;45891;53.006;6.512;2023-05-10T04:41:37;12.20;99.90
60027;DHT22;45891;53.006;6.512;2023-05-10T04:44:04;12.30;99.90
60027;DHT22;45891;53.006;6.512;2023-05-10T04:46:30;12.30;99.90
60027;DHT22;45891;53.006;6.512;2023-05-10T04:48:56;12.30;99.90
60027;DHT22;45891;53.006;6.512;2023-05-10T04:51:22;12.30;99.90
60027;DHT22;45891;53.006;6.512;2023-05-10T04:53:48;12.20;99.90
60027;DHT22;45891;53.006;6.512;2023-05-10T04:56:14;12.30;99.90
60027;DHT22;45891;53.006;6.512;2023-05-10T04:58:40;12.20;99.90
60027;DHT22;45891;53.006;6.512;2023-05-10T05:01:07;12.30;99.90
60027;DHT22;45891;53.006;6.512;2023-05-10T05:03:35;12.30;99.90
60027;DHT22;45891;53.006;6.512;2023-05-10T05:06:01;12.30;99.90
60027;DHT22;45891;53.006;6.512;2023-05-10T05:08:27;12.30;99.90
60027;DHT22;45891;53.006;6.512;2023-05-10T05:10:53;12.30;99.90
60027;DHT22;45891;53.006;6.512;2023-05-10T05:13:20;12.20;99.90
60027;DHT22;45891;53.006;6.512;2023-05-10T05:15:46;12.30;99.90
60027;DHT22;45891;53.006;6.512;2023-05-10T05:18:12;12.30;99.90
60027;DHT22;45891;53.006;6.512;2023-05-10T05:20:38;12.30;99.90
60027;DHT22;45891;53.006;6.512;2023-05-10T05:23:04;12.20;99.90
60027;DHT22;45891;53.006;6.512;2023-05-10T05:25:30;12.20;99.90
60027;DHT22;45891;53.006;6.512;2023-05-10T05:27:56;12.30;99.90
60027;DHT22;45891;53.006;6.512;2023-05-10T05:30:23;12.30;99.90
60027;DHT22;45891;53.006;6.512;2023-05-10T05:32:49;12.30;99.90
60027;DHT22;45891;53.006;6.512;2023-05-10T05:35:15;12.20;99.90
60027;DHT22;45891;53.006;6.512;2023-05-10T05:37:41;12.30;99.90
60027;DHT22;45891;53.006;6.512;2023-05-10T05:40:07;12.30;99.90
60027;DHT22;45891;53.006;6.512;2023-05-10T05:42:34;12.30;99.90
60027;DHT22;45891;53.006;6.512;2023-05-10T05:45:00;12.30;99.90
60027;DHT22;45891;53.006;6.512;2023-05-10T05:47:26;12.30;99.90
60027;DHT22;45891;53.006;6.512;2023-05-10T05:49:52;12.30;99.90
60027;DHT22;45891;53.006;6.512;2023-05-10T05:52:18;12.20;99.90
60027;DHT22;45891;53.006;6.512;2023-05-10T05:54:44;12.20;99.90
60027;DHT22;45891;53.006;6.512;2023-05-10T05:57:10;12.20;99.90
60027;DHT22;45891;53.006;6.512;2023-05-10T05:59:36;12.30;99.90
60027;DHT22;45891;53.006;6.512;2023-05-10T06:02:08;12.30;99.90
60027;DHT22;45891;53.006;6.512;2023-05-10T06:04:34;12.30;99.90
60027;DHT22;45891;53.006;6.512;2023-05-10T06:07:00;12.30;99.90
60027;DHT22;45891;53.006;6.512;2023-05-10T06:09:26;12.30;99.90
60027;DHT22;45891;53.006;6.512;2023-05-10T06:11:52;12.30;99.90
60027;DHT22;45891;53.006;6.512;2023-05-10T06:14:21;12.30;99.90
60027;DHT22;45891;53.006;6.512;2023-05-10T06:16:48;12.30;99.90
60027;DHT22;45891;53.006;6.512;2023-05-10T06:19:15;12.30;99.90
60027;DHT22;45891;53.006;6.512;2023-05-10T06:21:41;12.30;99.90
60027;DHT22;45891;53.006;6.512;2023-05-10T06:24:07;12.30;99.90
60027;DHT22;45891;53.006;6.512;2023-05-10T06:26:33;12.40;99.90
60027;DHT22;45891;53.006;6.512;2023-05-10T06:29:00;12.30;99.90
60027;DHT22;45891;53.006;6.512;2023-05-10T06:31:26;12.40;99.90
60027;DHT22;45891;53.006;6.512;2023-05-10T06:33:52;12.40;99.90
60027;DHT22;45891;53.006;6.512;2023-05-10T06:36:19;12.40;99.90
60027;DHT22;45891;53.006;6.512;2023-05-10T06:38:45;12.40;99.90
60027;DHT22;45891;53.006;6.512;2023-05-10T06:41:11;12.50;99.90
60027;DHT22;45891;53.006;6.512;2023-05-10T06:43:37;12.50;99.90
60027;DHT22;45891;53.006;6.512;2023-05-10T06:46:07;12.50;99.90
60027;DHT22;45891;53.006;6.512;2023-05-10T06:48:33;12.40;99.90
60027;DHT22;45891;53.006;6.512;2023-05-10T06:50:59;12.50;99.90
60027;DHT22;45891;53.006;6.512;2023-05-10T06:53:26;12.50;99.90
60027;DHT22;45891;53.006;6.512;2023-05-10T06:55:52;12.50;99.90
60027;DHT22;45891;53.006;6.512;2023-05-10T06:58:18;12.50;99.90
60027;DHT22;45891;53.006;6.512;2023-05-10T07:00:44;12.50;99.90
60027;DHT22;45891;53.006;6.512;2023-05-10T07:03:11;12.50;99.90
60027;DHT22;45891;53.006;6.512;2023-05-10T07:05:37;12.50;99.90
60027;DHT22;45891;53.006;6.512;2023-05-10T07:08:03;12.50;99.90
60027;DHT22;45891;53.006;6.512;2023-05-10T07:10:29;12.60;99.90
60027;DHT22;45891;53.006;6.512;2023-05-10T07:12:55;12.60;99.90
60027;DHT22;45891;53.006;6.512;2023-05-10T07:15:21;12.60;99.90
60027;DHT22;45891;53.006;6.512;2023-05-10T07:17:47;12.70;99.90
60027;DHT22;45891;53.006;6.512;2023-05-10T07:20:14;12.70;99.90
60027;DHT22;45891;53.006;6.512;2023-05-10T07:22:40;12.70;99.90
60027;DHT22;45891;53.006;6.512;2023-05-10T07:25:06;12.60;99.90
60027;DHT22;45891;53.006;6.512;2023-05-10T07:27:32;12.60;99.90
60027;DHT22;45891;53.006;6.512;2023-05-10T07:29:58;12.60;99.90
60027;DHT22;45891;53.006;6.512;2023-05-10T07:32:24;12.70;99.90
60027;DHT22;45891;53.006;6.512;2023-05-10T07:34:51;12.70;99.90
60027;DHT22;45891;53.006;6.512;2023-05-10T07:37:17;12.70;99.90
60027;DHT22;45891;53.006;6.512;2023-05-10T07:39:43;12.70;99.90
60027;DHT22;45891;53.006;6.512;2023-05-10T07:42:09;12.80;99.90
60027;DHT22;45891;53.006;6.512;2023-05-10T07:44:35;12.90;99.90
60027;DHT22;45891;53.006;6.512;2023-05-10T07:47:01;12.90;99.90
60027;DHT22;45891;53.006;6.512;2023-05-10T07:49:27;13.00;99.90
60027;DHT22;45891;53.006;6.512;2023-05-10T07:51:53;13.00;99.90
60027;DHT22;45891;53.006;6.512;2023-05-10T07:54:19;12.90;99.90
60027;DHT22;45891;53.006;6.512;2023-05-10T07:56:45;12.90;99.90
60027;DHT22;45891;53.006;6.512;2023-05-10T07:59:16;12.90;99.90
60027;DHT22;45891;53.006;6.512;2023-05-10T08:01:43;12.90;99.90
60027;DHT22;45891;53.006;6.512;2023-05-10T08:04:09;12.80;99.90
60027;DHT22;45891;53.006;6.512;2023-05-10T08:06:35;12.90;99.90
60027;DHT22;45891;53.006;6.512;2023-05-10T08:09:01;12.90;99.90
60027;DHT22;45891;53.006;6.512;2023-05-10T08:11:28;13.00;99.90
60027;DHT22;45891;53.006;6.512;2023-05-10T08:13:54;13.10;99.90
60027;DHT22;45891;53.006;6.512;2023-05-10T08:16:20;13.10;99.90
60027;DHT22;45891;53.006;6.512;2023-05-10T08:18:47;13.10;99.90
60027;DHT22;45891;53.006;6.512;2023-05-10T08:21:13;13.10;99.90
60027;DHT22;45891;53.006;6.512;2023-05-10T08:23:40;13.10;99.90
60027;DHT22;45891;53.006;6.512;2023-05-10T08:26:06;13.00;99.90
60027;DHT22;45891;53.006;6.512;2023-05-10T08:28:32;13.00;99.90
60027;DHT22;45891;53.006;6.512;2023-05-10T08:30:58;13.00;99.90
60027;DHT22;45891;53.006;6.512;2023-05-10T08:33:24;12.90;99.90
60027;DHT22;45891;53.006;6.512;2023-05-10T08:35:51;12.90;99.90
60027;DHT22;45891;53.006;6.512;2023-05-10T08:38:18;12.90;99.90
60027;DHT22;45891;53.006;6.512;2023-05-10T08:40:44;12.90;99.90
60027;DHT22;45891;53.006;6.512;2023-05-10T08:43:12;13.00;99.90
60027;DHT22;45891;53.006;6.512;2023-05-10T08:45:44;12.90;99.90
60027;DHT22;45891;53.006;6.512;2023-05-10T08:48:14;13.00;99.90
60027;DHT22;45891;53.006;6.512;2023-05-10T08:50:41;13.10;99.90
60027;DHT22;45891;53.006;6.512;2023-05-10T08:53:11;13.10;99.90
60027;DHT22;45891;53.006;6.512;2023-05-10T08:55:39;13.10;99.90
60027;DHT22;45891;53.006;6.512;2023-05-10T08:58:06;13.10;99.90
60027;DHT22;45891;53.006;6.512;2023-05-10T09:00:33;13.20;99.90
60027;DHT22;45891;53.006;6.512;2023-05-10T09:02:59;13.20;99.90
60027;DHT22;45891;53.006;6.512;2023-05-10T09:05:26;13.30;99.90
60027;DHT22;45891;53.006;6.512;2023-05-10T09:07:52;13.20;99.90
60027;DHT22;45891;53.006;6.512;2023-05-10T09:10:20;13.30;99.90
60027;DHT22;45891;53.006;6.512;2023-05-10T09:12:46;13.30;99.90
60027;DHT22;45891;53.006;6.512;2023-05-10T09:15:15;13.30;99.90
60027;DHT22;45891;53.006;6.512;2023-05-10T09:17:42;13.30;99.90
60027;DHT22;45891;53.006;6.512;2023-05-10T09:20:09;13.30;99.90
60027;DHT22;45891;53.006;6.512;2023-05-10T09:22:36;13.30;99.90
60027;DHT22;45891;53.006;6.512;2023-05-10T09:27:36;13.30;99.90
60027;DHT22;45891;53.006;6.512;2023-05-10T09:30:07;13.30;99.90
60027;DHT22;45891;53.006;6.512;2023-05-10T09:32:42;13.30;99.90
60027;DHT22;45891;53.006;6.512;2023-05-10T09:35:17;13.40;99.90
60027;DHT22;45891;53.006;6.512;2023-05-10T09:37:45;13.50;99.90
60027;DHT22;45891;53.006;6.512;2023-05-10T09:40:13;13.70;99.90
60027;DHT22;45891;53.006;6.512;2023-05-10T09:45:30;13.80;99.90
60027;DHT22;45891;53.006;6.512;2023-05-10T09:47:57;13.70;99.90
60027;DHT22;45891;53.006;6.512;2023-05-10T09:50:25;13.70;99.90
60027;DHT22;45891;53.006;6.512;2023-05-10T09:55:24;13.80;99.90
60027;DHT22;45891;53.006;6.512;2023-05-10T09:58:00;13.80;99.90
60027;DHT22;45891;53.006;6.512;2023-05-10T10:00:26;13.80;99.90
60027;DHT22;45891;53.006;6.512;2023-05-10T10:02:57;13.80;99.90
60027;DHT22;45891;53.006;6.512;2023-05-10T10:05:31;13.80;99.90
60027;DHT22;45891;53.006;6.512;2023-05-10T10:07:58;14.00;99.90
60027;DHT22;45891;53.006;6.512;2023-05-10T10:10:25;14.10;99.90
60027;DHT22;45891;53.006;6.512;2023-05-10T10:12:52;14.20;99.90
60027;DHT22;45891;53.006;6.512;2023-05-10T10:15:19;14.40;99.90
60027;DHT22;45891;53.006;6.512;2023-05-10T10:17:46;14.30;99.90
60027;DHT22;45891;53.006;6.512;2023-05-10T10:20:14;14.50;99.90
60027;DHT22;45891;53.006;6.512;2023-05-10T10:22:40;14.50;99.90
60027;DHT22;45891;53.006;6.512;2023-05-10T10:25:08;14.50;99.90
60027;DHT22;45891;53.006;6.512;2023-05-10T10:28:03;14.60;99.90
60027;DHT22;45891;53.006;6.512;2023-05-10T10:30:43;14.70;99.90
60027;DHT22;45891;53.006;6.512;2023-05-10T10:33:40;14.60;99.90
60027;DHT22;45891;53.006;6.512;2023-05-10T10:36:13;14.80;99.90
60027;DHT22;45891;53.006;6.512;2023-05-10T10:41:33;14.70;99.90
60027;DHT22;45891;53.006;6.512;2023-05-10T10:49:48;14.70;99.90
60027;DHT22;45891;53.006;6.512;2023-05-10T11:00:29;14.90;99.90
60027;DHT22;45891;53.006;6.512;2023-05-10T11:03:05;15.00;99.90
60027;DHT22;45891;53.006;6.512;2023-05-10T11:05:33;15.00;99.90
60027;DHT22;45891;53.006;6.512;2023-05-10T11:10:48;15.10;99.90
60027;DHT22;45891;53.006;6.512;2023-05-10T11:13:14;15.20;99.90
60027;DHT22;45891;53.006;6.512;2023-05-10T11:15:48;15.20;99.90
60027;DHT22;45891;53.006;6.512;2023-05-10T11:20:43;15.40;99.90
60027;DHT22;45891;53.006;6.512;2023-05-10T11:23:13;15.40;99.90
60027;DHT22;45891;53.006;6.512;2023-05-10T11:25:42;15.30;99.90
60027;DHT22;45891;53.006;6.512;2023-05-10T11:28:10;15.30;99.90
60027;DHT22;45891;53.006;6.512;2023-05-10T11:30:41;15.20;99.90
60027;DHT22;45891;53.006;6.512;2023-05-10T11:33:08;15.20;99.90
60027;DHT22;45891;53.006;6.512;2023-05-10T11:35:38;15.10;99.90
60027;DHT22;45891;53.006;6.512;2023-05-10T11:38:08;15.20;99.90
60027;DHT22;45891;53.006;6.512;2023-05-10T11:40:35;15.00;99.90
60027;DHT22;45891;53.006;6.512;2023-05-10T11:43:02;14.90;99.90
60027;DHT22;45891;53.006;6.512;2023-05-10T11:45:29;14.90;99.90
60027;DHT22;45891;53.006;6.512;2023-05-10T11:47:58;14.70;99.90
60027;DHT22;45891;53.006;6.512;2023-05-10T11:50:25;14.60;99.90
60027;DHT22;45891;53.006;6.512;2023-05-10T11:52:55;14.60;99.90
60027;DHT22;45891;53.006;6.512;2023-05-10T11:55:22;14.50;99.90
60027;DHT22;45891;53.006;6.512;2023-05-10T11:57:53;14.50;99.90
60027;DHT22;45891;53.006;6.512;2023-05-10T12:00:19;14.50;99.90
60027;DHT22;45891;53.006;6.512;2023-05-10T12:02:45;14.60;99.90
60027;DHT22;45891;53.006;6.512;2023-05-10T12:05:12;14.60;99.90
60027;DHT22;45891;53.006;6.512;2023-05-10T12:07:38;14.60;99.90
60027;DHT22;45891;53.006;6.512;2023-05-10T12:10:12;14.70;99.90
60027;DHT22;45891;53.006;6.512;2023-05-10T12:12:44;14.70;99.90
60027;DHT22;45891;53.006;6.512;2023-05-10T12:15:22;14.70;99.90
60027;DHT22;45891;53.006;6.512;2023-05-10T12:17:49;14.70;99.90
60027;DHT22;45891;53.006;6.512;2023-05-10T12:22:52;14.80;99.90
60027;DHT22;45891;53.006;6.512;2023-05-10T12:25:21;14.90;99.90
60027;DHT22;45891;53.006;6.512;2023-05-10T12:27:54;14.90;99.90
60027;DHT22;45891;53.006;6.512;2023-05-10T12:30:26;14.90;99.90
60027;DHT22;45891;53.006;6.512;2023-05-10T12:32:53;14.90;99.90
60027;DHT22;45891;53.006;6.512;2023-05-10T12:35:19;14.90;99.90
60027;DHT22;45891;53.006;6.512;2023-05-10T12:37:51;14.90;99.90
60027;DHT22;45891;53.006;6.512;2023-05-10T12:40:17;15.00;99.90
60027;DHT22;45891;53.006;6.512;2023-05-10T12:42:43;15.00;99.90
60027;DHT22;45891;53.006;6.512;2023-05-10T12:45:11;15.00;99.90
60027;DHT22;45891;53.006;6.512;2023-05-10T12:47:37;15.20;99.90
60027;DHT22;45891;53.006;6.512;2023-05-10T12:50:04;15.20;99.90
60027;DHT22;45891;53.006;6.512;2023-05-10T12:52:31;15.20;99.90
60027;DHT22;45891;53.006;6.512;2023-05-10T12:55:00;15.00;99.90
60027;DHT22;45891;53.006;6.512;2023-05-10T12:57:27;14.90;99.90
60027;DHT22;45891;53.006;6.512;2023-05-10T12:59:54;14.90;99.90
60027;DHT22;45891;53.006;6.512;2023-05-10T13:02:20;14.70;99.90
60027;DHT22;45891;53.006;6.512;2023-05-10T13:04:49;14.60;99.90
60027;DHT22;45891;53.006;6.512;2023-05-10T13:07:15;14.50;99.90
60027;DHT22;45891;53.006;6.512;2023-05-10T13:09:41;14.50;99.90
60027;DHT22;45891;53.006;6.512;2023-05-10T13:12:07;14.40;99.90
60027;DHT22;45891;53.006;6.512;2023-05-10T13:14:33;14.40;99.90
60027;DHT22;45891;53.006;6.512;2023-05-10T13:17:00;14.50;99.90
60027;DHT22;45891;53.006;6.512;2023-05-10T13:19:26;14.50;99.90
60027;DHT22;45891;53.006;6.512;2023-05-10T13:21:52;14.40;99.90
60027;DHT22;45891;53.006;6.512;2023-05-10T13:24:18;14.50;99.90
60027;DHT22;45891;53.006;6.512;2023-05-10T13:26:45;14.70;99.90
60027;DHT22;45891;53.006;6.512;2023-05-10T13:29:11;14.90;99.90
60027;DHT22;45891;53.006;6.512;2023-05-10T13:31:37;15.10;99.90
60027;DHT22;45891;53.006;6.512;2023-05-10T13:34:03;15.20;99.90
60027;DHT22;45891;53.006;6.512;2023-05-10T13:36:29;15.30;99.90
60027;DHT22;45891;53.006;6.512;2023-05-10T13:38:56;15.40;99.90
60027;DHT22;45891;53.006;6.512;2023-05-10T13:41:22;15.50;99.90
60027;DHT22;45891;53.006;6.512;2023-05-10T13:43:48;15.60;99.90
60027;DHT22;45891;53.006;6.512;2023-05-10T13:46:15;15.70;99.90
60027;DHT22;45891;53.006;6.512;2023-05-10T13:48:41;15.70;99.90
60027;DHT22;45891;53.006;6.512;2023-05-10T13:51:07;15.80;99.90
60027;DHT22;45891;53.006;6.512;2023-05-10T13:53:33;15.70;99.90
60027;DHT22;45891;53.006;6.512;2023-05-10T13:55:59;15.70;99.90
60027;DHT22;45891;53.006;6.512;2023-05-10T13:58:25;15.70;99.90
60027;DHT22;45891;53.006;6.512;2023-05-10T14:00:51;15.70;99.90
60027;DHT22;45891;53.006;6.512;2023-05-10T14:03:17;15.80;99.90
60027;DHT22;45891;53.006;6.512;2023-05-10T14:05:43;15.70;99.90
60027;DHT22;45891;53.006;6.512;2023-05-10T14:08:11;15.70;99.90
60027;DHT22;45891;53.006;6.512;2023-05-10T14:10:39;15.50;99.90
60027;DHT22;45891;53.006;6.512;2023-05-10T14:13:05;15.50;99.90
60027;DHT22;45891;53.006;6.512;2023-05-10T14:15:32;15.50;99.90
60027;DHT22;45891;53.006;6.512;2023-05-10T14:17:58;15.50;99.90
60027;DHT22;45891;53.006;6.512;2023-05-10T14:20:24;15.50;99.90
60027;DHT22;45891;53.006;6.512;2023-05-10T14:22:50;15.40;99.90
60027;DHT22;45891;53.006;6.512;2023-05-10T14:25:16;15.40;99.90
60027;DHT22;45891;53.006;6.512;2023-05-10T14:27:43;15.40;99.90
60027;DHT22;45891;53.006;6.512;2023-05-10T14:30:09;15.40;99.90
60027;DHT22;45891;53.006;6.512;2023-05-10T14:32:36;15.50;99.90
60027;DHT22;45891;53.006;6.512;2023-05-10T14:35:03;15.50;99.90
60027;DHT22;45891;53.006;6.512;2023-05-10T14:37:29;15.70;99.90
60027;DHT22;45891;53.006;6.512;2023-05-10T14:39:55;15.80;99.90
60027;DHT22;45891;53.006;6.512;2023-05-10T14:42:21;15.90;99.90
60027;DHT22;45891;53.006;6.512;2023-05-10T14:44:47;16.00;99.90
60027;DHT22;45891;53.006;6.512;2023-05-10T14:47:14;16.00;99.90
60027;DHT22;45891;53.006;6.512;2023-05-10T14:49:40;16.10;99.90
60027;DHT22;45891;53.006;6.512;2023-05-10T14:52:06;16.10;99.90
60027;DHT22;45891;53.006;6.512;2023-05-10T14:54:33;16.20;99.90
60027;DHT22;45891;53.006;6.512;2023-05-10T14:56:59;16.20;99.90
60027;DHT22;45891;53.006;6.512;2023-05-10T14:59:26;16.30;99.90
60027;DHT22;45891;53.006;6.512;2023-05-10T15:01:52;16.30;99.90
60027;DHT22;45891;53.006;6.512;2023-05-10T15:04:18;16.40;99.90
60027;DHT22;45891;53.006;6.512;2023-05-10T15:06:44;16.50;99.90
60027;DHT22;45891;53.006;6.512;2023-05-10T15:09:10;16.60;99.90
60027;DHT22;45891;53.006;6.512;2023-05-10T15:11:36;16.60;99.90
60027;DHT22;45891;53.006;6.512;2023-05-10T15:14:02;16.50;99.90
60027;DHT22;45891;53.006;6.512;2023-05-10T15:16:28;16.50;99.90
60027;DHT22;45891;53.006;6.512;2023-05-10T15:18:54;16.60;99.90
60027;DHT22;45891;53.006;6.512;2023-05-10T15:21:21;16.50;99.90
60027;DHT22;45891;53.006;6.512;2023-05-10T15:23:47;16.60;99.90
60027;DHT22;45891;53.006;6.512;2023-05-10T15:26:13;16.70;99.90
60027;DHT22;45891;53.006;6.512;2023-05-10T15:28:39;16.60;99.90
60027;DHT22;45891;53.006;6.512;2023-05-10T15:31:06;16.60;99.90
60027;DHT22;45891;53.006;6.512;2023-05-10T15:33:32;16.70;99.90
60027;DHT22;45891;53.006;6.512;2023-05-10T15:35:58;16.70;99.90
60027;DHT22;45891;53.006;6.512;2023-05-10T15:38:24;16.70;99.90
60027;DHT22;45891;53.006;6.512;2023-05-10T15:40:50;16.70;99.90
60027;DHT22;45891;53.006;6.512;2023-05-10T15:43:16;16.70;99.90
60027;DHT22;45891;53.006;6.512;2023-05-10T15:45:42;16.70;99.90
60027;DHT22;45891;53.006;6.512;2023-05-10T15:48:09;16.70;99.90
60027;DHT22;45891;53.006;6.512;2023-05-10T15:50:35;16.80;99.90
60027;DHT22;45891;53.006;6.512;2023-05-10T15:53:01;16.80;99.90
60027;DHT22;45891;53.006;6.512;2023-05-10T15:55:27;16.60;99.90
60027;DHT22;45891;53.006;6.512;2023-05-10T15:57:53;16.50;99.90
60027;DHT22;45891;53.006;6.512;2023-05-10T16:00:19;16.40;99.90
60027;DHT22;45891;53.006;6.512;2023-05-10T16:02:45;16.20;99.90
60027;DHT22;45891;53.006;6.512;2023-05-10T16:05:12;16.00;99.90
60027;DHT22;45891;53.006;6.512;2023-05-10T16:07:38;15.90;99.90
60027;DHT22;45891;53.006;6.512;2023-05-10T16:10:08;15.80;99.90
60027;DHT22;45891;53.006;6.512;2023-05-10T16:12:34;15.80;99.90
60027;DHT22;45891;53.006;6.512;2023-05-10T16:15:01;15.80;99.90
60027;DHT22;45891;53.006;6.512;2023-05-10T16:17:27;15.70;99.90
60027;DHT22;45891;53.006;6.512;2023-05-10T16:19:53;15.70;99.90